Time;durP1;ratioP1;P1;durP2;ratioP2;P2;SDS_P1;SDS_P2;PMS_P1;PMS_P2;Temp;Humidity;BMP_temperature;BMP_pressure;BME280_temperature;BME280_humidity;BME280_pressure;Samples;Min_cycle;Max_cycle;Signal;HPM_P1;HPM_P2
2021/09/13 00:04:12;;;;;;;7.53;3.88;;;15.90;99.90;;;;;;12430194;28;20054;-43
2021/09/13 00:10:14;;;;;;;11.77;3.45;;;15.90;99.90;;;;;;12434149;28;20057;-39
2021/09/13 00:16:17;;;;;;;6.10;3.67;;;15.90;99.90;;;;;;12429270;28;20119;-38
2021/09/13 00:22:19;;;;;;;5.93;3.70;;;15.80;99.90;;;;;;12429606;28;20038;-43
2021/09/13 00:28:21;;;;;;;6.35;3.67;;;15.70;99.90;;;;;;12425722;28;20072;-36
2021/09/13 00:34:23;;;;;;;7.25;3.55;;;15.50;99.90;;;;;;12427220;28;20530;-42
2021/09/13 00:40:25;;;;;;;7.00;3.60;;;15.50;99.90;;;;;;12428721;28;20046;-37
2021/09/13 00:46:27;;;;;;;7.78;3.88;;;15.60;99.90;;;;;;12423407;28;20081;-42
2021/09/13 00:52:29;;;;;;;8.35;4.35;;;15.60;99.90;;;;;;12428425;28;20690;-42
2021/09/13 00:58:31;;;;;;;6.40;4.68;;;15.60;99.90;;;;;;12424112;28;20068;-37
2021/09/13 01:04:36;;;;;;;7.63;4.78;;;15.50;99.90;;;;;;12425307;28;20509;-42
2021/09/13 01:10:39;;;;;;;10.23;4.70;;;15.50;99.90;;;;;;12427072;28;20074;-43
2021/09/13 01:16:41;;;;;;;12.07;5.40;;;15.50;99.90;;;;;;12425488;28;20065;-37
2021/09/13 01:22:46;;;;;;;9.05;5.40;;;15.50;99.90;;;;;;12427363;28;20046;-42
2021/09/13 01:28:48;;;;;;;7.45;4.65;;;15.40;99.90;;;;;;12427432;28;20522;-37
2021/09/13 01:34:49;;;;;;;7.97;5.20;;;15.40;99.90;;;;;;12425378;28;20060;-42
2021/09/13 01:40:52;;;;;;;7.68;4.85;;;15.30;99.90;;;;;;12425937;28;20084;-42
2021/09/13 01:46:55;;;;;;;7.65;4.80;;;15.30;99.90;;;;;;12424169;28;20137;-42
2021/09/13 01:52:57;;;;;;;10.18;5.13;;;15.30;99.90;;;;;;12407160;28;21036;-44
2021/09/13 01:58:59;;;;;;;7.65;4.95;;;15.10;99.90;;;;;;12423284;28;20529;-42
2021/09/13 02:05:00;;;;;;;8.82;5.40;;;15.10;99.90;;;;;;12407090;28;20305;-42
2021/09/13 02:11:04;;;;;;;9.07;5.50;;;15.00;99.90;;;;;;12423057;28;20057;-36
2021/09/13 02:17:06;;;;;;;9.18;4.95;;;15.00;99.90;;;;;;12426880;28;20688;-38
2021/09/13 02:23:08;;;;;;;9.35;4.65;;;15.00;99.90;;;;;;12422128;28;20042;-43
2021/09/13 02:29:10;;;;;;;11.27;5.07;;;14.90;99.90;;;;;;12404163;28;20058;-42
2021/09/13 02:35:12;;;;;;;9.23;5.10;;;15.00;99.90;;;;;;12424989;28;20057;-38
2021/09/13 02:41:14;;;;;;;10.65;4.82;;;15.00;99.90;;;;;;12423919;28;20100;-42
2021/09/13 02:47:16;;;;;;;8.30;4.93;;;14.90;99.90;;;;;;12424449;28;20088;-37
2021/09/13 02:53:17;;;;;;;9.35;5.78;;;14.90;99.90;;;;;;12420213;28;20050;-41
2021/09/13 02:59:19;;;;;;;11.65;5.82;;;14.80;99.90;;;;;;12421530;28;20089;-36
2021/09/13 03:05:21;;;;;;;11.10;5.72;;;14.90;99.90;;;;;;12419225;28;20414;-42
2021/09/13 03:11:23;;;;;;;9.23;5.55;;;14.90;99.90;;;;;;12422581;28;20519;-41
2021/09/13 03:17:25;;;;;;;9.20;4.78;;;14.90;99.90;;;;;;12422894;28;20049;-42
2021/09/13 03:23:27;;;;;;;7.72;4.88;;;14.90;99.90;;;;;;12423898;28;20097;-37
2021/09/13 03:29:29;;;;;;;9.95;5.05;;;14.80;99.90;;;;;;12433502;28;20369;-40
2021/09/13 03:35:31;;;;;;;11.68;5.50;;;14.70;99.90;;;;;;12432193;28;21511;-37
2021/09/13 03:41:33;;;;;;;8.20;5.50;;;14.60;99.90;;;;;;12432085;28;20141;-42
2021/09/13 03:47:35;;;;;;;14.27;6.07;;;14.60;99.90;;;;;;12429892;28;20053;-37
2021/09/13 03:53:37;;;;;;;8.73;5.93;;;14.50;99.90;;;;;;12429566;28;20447;-37
2021/09/13 03:59:39;;;;;;;13.57;6.75;;;14.40;99.90;;;;;;12426691;28;20141;-36
2021/09/13 04:05:46;;;;;;;12.20;6.53;;;14.30;99.90;;;;;;12430163;28;20083;-44
2021/09/13 04:12:02;;;;;;;11.52;6.65;;;14.30;99.90;;;;;;12430752;28;20056;-36
2021/09/13 04:18:04;;;;;;;11.75;5.93;;;14.20;99.90;;;;;;12429545;28;20054;-36
2021/09/13 04:24:07;;;;;;;10.70;6.30;;;14.30;99.90;;;;;;12430338;28;20135;-41
2021/09/13 04:30:09;;;;;;;12.38;5.97;;;14.30;99.90;;;;;;12428983;28;20057;-42
2021/09/13 04:36:11;;;;;;;17.73;6.95;;;14.30;99.90;;;;;;12428195;28;20049;-41
2021/09/13 04:42:13;;;;;;;11.68;6.15;;;14.40;99.90;;;;;;12430256;28;20050;-42
2021/09/13 04:48:15;;;;;;;9.35;5.70;;;14.40;99.90;;;;;;12428955;28;20404;-37
2021/09/13 04:54:18;;;;;;;8.13;5.05;;;14.40;99.90;;;;;;12426168;28;20101;-42
2021/09/13 05:00:21;;;;;;;8.82;5.95;;;14.40;99.90;;;;;;12429461;28;20071;-44
2021/09/13 05:06:24;;;;;;;16.92;6.75;;;14.30;99.90;;;;;;12428262;28;20061;-36
2021/09/13 05:12:30;;;;;;;11.30;6.68;;;14.30;99.90;;;;;;12427943;28;20061;-42
2021/09/13 05:18:37;;;;;;;8.43;5.88;;;14.20;99.90;;;;;;12429645;28;20148;-38
2021/09/13 05:24:39;;;;;;;12.20;6.38;;;14.00;99.90;;;;;;12427553;28;20050;-37
2021/09/13 05:30:41;;;;;;;9.65;6.80;;;14.20;99.90;;;;;;12425498;28;20105;-37
2021/09/13 05:36:44;;;;;;;15.13;7.50;;;14.40;99.90;;;;;;12428497;28;20372;-36
2021/09/13 05:42:47;;;;;;;14.65;7.38;;;14.30;99.90;;;;;;12425654;28;20499;-42
2021/09/13 05:48:49;;;;;;;16.30;8.15;;;14.40;99.90;;;;;;12422562;28;20049;-42
2021/09/13 05:54:51;;;;;;;17.42;8.52;;;14.70;99.90;;;;;;12421499;28;20084;-36
2021/09/13 06:00:53;;;;;;;16.63;8.10;;;14.40;99.90;;;;;;12421917;28;20790;-37
2021/09/13 06:06:56;;;;;;;21.13;9.38;;;14.40;99.90;;;;;;12428702;28;20054;-36
2021/09/13 06:13:00;;;;;;;19.10;8.98;;;14.40;99.90;;;;;;12406160;28;20066;-37
2021/09/13 06:19:03;;;;;;;16.48;8.20;;;14.60;99.90;;;;;;12424101;28;20058;-37
2021/09/13 06:25:05;;;;;;;23.42;9.48;;;14.50;99.90;;;;;;12422375;28;20050;-37
2021/09/13 06:31:08;;;;;;;20.90;9.55;;;14.40;99.90;;;;;;12421846;28;21065;-44
2021/09/13 06:37:11;;;;;;;16.13;9.13;;;14.60;99.90;;;;;;12422002;28;20104;-42
2021/09/13 06:43:15;;;;;;;12.60;8.43;;;14.40;99.90;;;;;;12423013;28;20074;-37
2021/09/13 06:49:18;;;;;;;11.25;7.35;;;14.40;99.90;;;;;;12420441;28;20068;-42
2021/09/13 06:55:21;;;;;;;16.35;8.55;;;14.20;99.90;;;;;;12420347;28;20104;-41
2021/09/13 07:01:23;;;;;;;18.55;9.40;;;14.20;99.90;;;;;;12419827;28;20080;-37
2021/09/13 07:07:26;;;;;;;15.50;9.00;;;14.20;99.90;;;;;;12423200;28;20050;-36
2021/09/13 07:13:28;;;;;;;14.02;8.75;;;14.40;99.90;;;;;;12423081;28;20087;-37
2021/09/13 07:19:40;;;;;;;14.55;8.38;;;14.70;99.90;;;;;;12419166;28;20054;-37
2021/09/13 07:25:44;;;;;;;13.35;8.55;;;14.80;99.90;;;;;;12418022;28;20078;-42
2021/09/13 07:31:47;;;;;;;14.32;8.40;;;14.60;99.90;;;;;;12419290;28;20061;-42
2021/09/13 07:37:49;;;;;;;14.52;7.35;;;14.90;99.90;;;;;;12421692;28;20060;-41
2021/09/13 07:43:51;;;;;;;10.82;7.30;;;14.80;99.90;;;;;;12417202;28;20064;-41
2021/09/13 07:49:54;;;;;;;14.30;7.95;;;14.80;99.90;;;;;;12421591;28;20050;-39
2021/09/13 07:55:56;;;;;;;13.02;8.57;;;15.00;99.90;;;;;;12422509;28;20057;-37
2021/09/13 08:01:58;;;;;;;15.45;9.15;;;15.00;99.90;;;;;;12425750;28;20140;-42
2021/09/13 08:08:01;;;;;;;13.48;8.65;;;15.30;99.90;;;;;;12420975;28;20080;-42
2021/09/13 08:14:06;;;;;;;13.73;8.38;;;15.40;99.90;;;;;;12432682;28;20042;-41
2021/09/13 08:20:08;;;;;;;18.17;9.75;;;15.30;99.90;;;;;;12428021;28;20096;-37
2021/09/13 08:26:11;;;;;;;16.30;9.45;;;15.50;99.90;;;;;;12433635;28;20517;-36
2021/09/13 08:32:14;;;;;;;14.30;9.75;;;15.40;99.90;;;;;;12431718;28;20049;-43
2021/09/13 08:38:17;;;;;;;16.85;9.35;;;15.10;99.90;;;;;;12429839;28;20057;-37
2021/09/13 08:44:19;;;;;;;15.02;9.30;;;15.40;99.90;;;;;;12426012;28;20764;-37
2021/09/13 08:51:03;;;;;;;16.65;9.70;;;15.40;99.90;;;;;;12431954;28;20502;-42
2021/09/13 08:56:49;;;;;;;16.15;10.70;;;15.40;99.90;;;;;;12429171;28;20154;-36
2021/09/13 09:02:54;;;;;;;18.15;11.07;;;15.30;99.90;;;;;;12426676;28;20045;-42
2021/09/13 09:09:26;;;;;;;16.70;10.10;;;15.30;99.90;;;;;;12429796;28;20058;-42
2021/09/13 09:15:30;;;;;;;22.95;14.20;;;15.60;99.90;;;;;;12427873;28;20508;-41
2021/09/13 09:21:36;;;;;;;19.27;12.90;;;15.80;99.90;;;;;;12427018;28;20058;-43
2021/09/13 09:28:00;;;;;;;15.90;11.02;;;15.40;99.90;;;;;;12420013;28;20054;-44
2021/09/13 09:34:16;;;;;;;15.40;11.30;;;15.50;99.90;;;;;;12424846;28;20054;-44
2021/09/13 09:40:30;;;;;;;16.27;9.38;;;15.80;99.90;;;;;;12428072;28;20046;-44
2021/09/13 09:46:41;;;;;;;11.60;7.00;;;15.90;99.90;;;;;;12423623;28;20145;-44
2021/09/13 09:52:43;;;;;;;11.95;7.25;;;15.90;99.90;;;;;;12422445;28;20164;-39
2021/09/13 09:58:58;;;;;;;11.50;6.68;;;15.90;99.90;;;;;;12425575;28;20080;-42
2021/09/13 10:05:00;;;;;;;11.77;6.65;;;15.90;99.90;;;;;;12424847;28;20054;-37
2021/09/13 10:11:06;;;;;;;9.38;5.95;;;16.10;99.90;;;;;;12424380;28;20053;-36
2021/09/13 10:17:08;;;;;;;9.05;7.13;;;16.30;99.90;;;;;;12425234;28;20062;-37
2021/09/13 10:23:23;;;;;;;10.98;6.85;;;16.40;99.90;;;;;;12421387;28;20515;-36
2021/09/13 10:29:28;;;;;;;11.55;7.00;;;16.30;99.90;;;;;;12424993;28;20050;-37
2021/09/13 10:36:02;;;;;;;8.68;5.50;;;16.80;99.90;;;;;;12420886;28;20148;-37
2021/09/13 10:42:06;;;;;;;9.10;5.50;;;17.10;99.90;;;;;;12421396;28;20046;-37
2021/09/13 10:48:21;;;;;;;8.98;5.20;;;17.10;99.90;;;;;;12423460;28;20053;-37
2021/09/13 10:54:25;;;;;;;8.95;4.57;;;17.30;99.90;;;;;;12423205;28;20561;-43
2021/09/13 11:00:39;;;;;;;8.38;4.65;;;17.20;99.90;;;;;;12421364;28;20050;-37
2021/09/13 11:06:44;;;;;;;6.88;4.40;;;17.50;99.90;;;;;;12419434;28;20050;-38
2021/09/13 11:12:55;;;;;;;6.75;3.92;;;17.50;99.90;;;;;;12425356;28;20728;-42
2021/09/13 11:18:58;;;;;;;6.10;4.25;;;17.60;99.90;;;;;;12425623;28;20053;-38
2021/09/13 11:25:07;;;;;;;6.75;4.45;;;17.60;99.90;;;;;;12424691;28;20050;-39
2021/09/13 11:31:10;;;;;;;7.80;4.13;;;17.50;99.90;;;;;;12399285;28;20085;-38
2021/09/13 11:37:19;;;;;;;6.45;3.90;;;17.50;99.90;;;;;;12422271;28;20065;-37
2021/09/13 11:44:07;;;;;;;5.50;3.50;;;17.80;99.90;;;;;;12421353;28;20491;-43
2021/09/13 11:50:11;;;;;;;7.57;3.20;;;18.00;99.90;;;;;;12429679;28;20103;-37
2021/09/13 11:56:13;;;;;;;5.65;3.17;;;18.40;99.90;;;;;;12430789;28;20057;-37
2021/09/13 12:02:16;;;;;;;6.00;3.30;;;18.90;99.90;;;;;;12428660;28;20580;-41
2021/09/13 12:08:23;;;;;;;4.97;2.60;;;19.50;99.90;;;;;;12429759;28;20767;-43
2021/09/13 12:14:32;;;;;;;6.55;4.43;;;20.10;99.90;;;;;;12427982;28;20085;-39
2021/09/13 12:20:39;;;;;;;7.13;4.00;;;19.70;99.90;;;;;;12428267;28;20500;-42
2021/09/13 12:26:44;;;;;;;6.05;3.75;;;19.00;99.90;;;;;;12431452;28;20050;-37
2021/09/13 12:32:58;;;;;;;5.18;3.45;;;18.60;99.90;;;;;;12429305;28;20054;-43
2021/09/13 12:39:08;;;;;;;5.38;3.10;;;18.50;99.90;;;;;;12431129;28;20057;-39
2021/09/13 12:45:11;;;;;;;6.70;3.60;;;18.80;99.90;;;;;;12430385;28;20052;-42
2021/09/13 12:51:16;;;;;;;4.32;3.05;;;18.90;99.90;;;;;;12432281;28;20484;-41
2021/09/13 12:57:38;;;;;;;4.03;2.88;;;19.00;99.90;;;;;;12425564;28;20104;-40
2021/09/13 13:04:06;;;;;;;5.82;2.50;;;19.00;99.90;;;;;;12426948;28;20149;-42
2021/09/13 13:10:08;;;;;;;5.10;2.65;;;19.30;99.90;;;;;;12427758;28;20058;-43
2021/09/13 13:16:13;;;;;;;7.30;2.80;;;19.60;99.90;;;;;;12427085;28;20092;-42
2021/09/13 13:22:18;;;;;;;4.55;2.17;;;19.60;99.90;;;;;;12426166;28;20095;-42
2021/09/13 13:28:26;;;;;;;3.22;1.58;;;19.70;99.90;;;;;;12426001;28;20042;-39
2021/09/13 13:34:30;;;;;;;3.90;1.60;;;19.30;99.90;;;;;;12418075;28;20115;-43
2021/09/13 13:40:33;;;;;;;2.50;1.38;;;19.40;99.90;;;;;;12427492;28;20042;-37
2021/09/13 13:46:35;;;;;;;2.80;1.30;;;19.80;99.90;;;;;;12426269;28;20080;-38
2021/09/13 13:52:39;;;;;;;3.92;1.70;;;19.60;99.90;;;;;;12428578;28;20049;-43
2021/09/13 13:58:42;;;;;;;2.55;1.35;;;19.20;99.90;;;;;;12424049;28;20058;-43
2021/09/13 14:04:46;;;;;;;1.88;1.05;;;19.50;99.90;;;;;;12420944;28;20964;-43
2021/09/13 14:10:48;;;;;;;1.83;1.00;;;19.90;99.90;;;;;;12415316;28;20829;-38
2021/09/13 14:16:51;;;;;;;2.42;1.00;;;20.20;99.90;;;;;;12424286;28;20145;-37
2021/09/13 14:22:54;;;;;;;3.13;1.10;;;20.00;99.90;;;;;;12422671;28;20050;-43
2021/09/13 14:28:56;;;;;;;3.47;1.33;;;19.60;99.90;;;;;;12429299;28;20442;-42
2021/09/13 14:34:58;;;;;;;2.10;1.10;;;20.00;99.90;;;;;;12400911;28;20054;-38
2021/09/13 14:41:01;;;;;;;2.72;1.00;;;19.60;99.90;;;;;;12425879;28;20045;-37
2021/09/13 14:47:07;;;;;;;1.40;0.65;;;19.40;99.90;;;;;;12419140;28;20092;-42
2021/09/13 14:53:22;;;;;;;2.22;0.90;;;19.20;99.90;;;;;;12429803;28;20141;-37
2021/09/13 14:59:35;;;;;;;2.63;1.20;;;19.50;99.90;;;;;;12430029;28;20046;-37
2021/09/13 15:05:51;;;;;;;3.33;1.20;;;19.80;99.90;;;;;;12398766;28;20050;-38
2021/09/13 15:12:04;;;;;;;1.30;0.75;;;20.40;99.90;;;;;;12424113;28;20614;-38
2021/09/13 15:18:15;;;;;;;2.00;0.90;;;20.20;99.90;;;;;;12423454;28;20510;-38
2021/09/13 15:24:26;;;;;;;1.25;0.68;;;20.10;99.90;;;;;;12426379;28;20487;-42
2021/09/13 15:30:41;;;;;;;1.05;0.50;;;19.60;99.90;;;;;;12410876;28;20053;-42
2021/09/13 15:36:54;;;;;;;1.23;0.60;;;19.20;99.90;;;;;;12434987;28;20052;-43
2021/09/13 15:43:06;;;;;;;1.30;0.65;;;18.90;99.90;;;;;;12432819;28;20050;-42
2021/09/13 15:49:17;;;;;;;1.75;0.50;;;19.00;99.90;;;;;;12435924;28;20077;-39
2021/09/13 15:55:35;;;;;;;1.67;0.85;;;19.10;99.90;;;;;;12423362;28;20597;-38
2021/09/13 16:01:48;;;;;;;1.33;0.60;;;19.40;99.90;;;;;;12437459;28;20062;-42
2021/09/13 16:08:00;;;;;;;1.25;0.70;;;19.30;99.90;;;;;;12434931;28;20054;-38
2021/09/13 16:14:16;;;;;;;1.85;1.00;;;19.30;99.90;;;;;;12426763;28;20054;-37
2021/09/13 16:20:32;;;;;;;2.03;0.90;;;18.90;99.90;;;;;;12421294;28;20084;-37
2021/09/13 16:26:47;;;;;;;1.50;1.00;;;18.60;99.90;;;;;;12433092;28;20459;-37
2021/09/13 16:33:02;;;;;;;2.00;1.02;;;18.70;99.90;;;;;;12432197;28;21720;-45
2021/09/13 16:39:17;;;;;;;1.85;1.00;;;18.60;99.90;;;;;;12433358;28;20057;-43
2021/09/13 16:45:36;;;;;;;5.43;1.50;;;18.40;99.90;;;;;;12403826;28;20592;-37
2021/09/13 16:51:54;;;;;;;2.80;1.65;;;18.30;99.90;;;;;;12428272;28;20073;-44
2021/09/13 16:58:10;;;;;;;3.13;1.67;;;18.20;99.90;;;;;;12435788;28;20062;-42
2021/09/13 17:04:26;;;;;;;4.60;1.80;;;18.00;99.90;;;;;;12418323;28;20050;-43
2021/09/13 17:10:42;;;;;;;3.60;2.17;;;18.00;99.90;;;;;;12429219;28;20050;-43
2021/09/13 17:16:55;;;;;;;5.50;2.28;;;17.80;99.90;;;;;;12431144;28;21215;-44
2021/09/13 17:23:07;;;;;;;4.80;1.95;;;17.70;99.90;;;;;;12427188;28;20060;-43
2021/09/13 17:29:22;;;;;;;5.70;2.38;;;17.60;99.90;;;;;;12431999;28;20046;-43
2021/09/13 17:35:39;;;;;;;5.72;2.90;;;17.60;99.90;;;;;;12422178;28;20137;-42
2021/09/13 17:41:53;;;;;;;3.88;2.40;;;17.50;99.90;;;;;;12424984;28;20145;-42
2021/09/13 17:48:09;;;;;;;5.63;2.33;;;17.20;99.90;;;;;;12431067;28;20050;-43
2021/09/13 17:54:24;;;;;;;5.90;2.28;;;17.00;99.90;;;;;;12418491;28;20141;-42
2021/09/13 18:00:38;;;;;;;4.73;2.17;;;16.90;99.90;;;;;;12427672;28;20114;-37
2021/09/13 18:07:05;;;;;;;5.97;2.55;;;16.90;99.90;;;;;;12414026;28;20050;-38
2021/09/13 18:13:12;;;;;;;5.30;2.40;;;16.70;99.90;;;;;;12422621;28;20525;-38
2021/09/13 18:19:14;;;;;;;6.45;2.63;;;16.60;99.90;;;;;;12425009;28;20113;-37
2021/09/13 18:25:16;;;;;;;4.63;2.53;;;16.50;99.90;;;;;;12423310;28;20061;-43
2021/09/13 18:31:18;;;;;;;4.63;2.20;;;16.30;99.90;;;;;;12424777;28;20054;-42
2021/09/13 18:37:20;;;;;;;5.95;2.60;;;16.40;99.90;;;;;;12420057;28;20058;-43
2021/09/13 18:43:22;;;;;;;3.75;2.15;;;16.40;99.90;;;;;;12420720;28;20129;-39
2021/09/13 18:49:25;;;;;;;8.38;3.00;;;16.30;99.90;;;;;;12423967;28;20104;-38
2021/09/13 18:55:27;;;;;;;5.43;3.00;;;16.30;99.90;;;;;;12421144;28;20076;-37
2021/09/13 19:01:29;;;;;;;5.50;2.70;;;16.20;99.90;;;;;;12421607;28;20069;-38
2021/09/13 19:07:32;;;;;;;5.93;2.75;;;16.10;99.90;;;;;;12421930;28;20934;-43
2021/09/13 19:13:35;;;;;;;4.40;2.55;;;16.00;99.90;;;;;;12421005;28;20104;-37
2021/09/13 19:19:40;;;;;;;6.32;2.78;;;16.00;99.90;;;;;;12422840;28;20119;-43
2021/09/13 19:25:42;;;;;;;7.88;2.92;;;16.00;99.90;;;;;;12423389;28;20049;-37
2021/09/13 19:31:43;;;;;;;4.72;2.90;;;15.90;99.90;;;;;;12423104;28;20058;-37
2021/09/13 19:37:46;;;;;;;4.90;2.80;;;15.90;99.90;;;;;;12420755;28;20042;-37
2021/09/13 19:43:48;;;;;;;6.18;3.30;;;15.80;99.90;;;;;;12421449;28;20091;-42
2021/09/13 19:49:51;;;;;;;5.97;3.33;;;15.70;99.90;;;;;;12420514;28;20057;-44
2021/09/13 19:55:53;;;;;;;6.82;3.40;;;15.60;99.90;;;;;;12420554;28;20068;-38
2021/09/13 20:01:55;;;;;;;5.53;3.55;;;15.60;99.90;;;;;;12403642;28;20120;-38
2021/09/13 20:07:57;;;;;;;7.05;3.75;;;15.70;99.90;;;;;;12427407;28;20523;-45
2021/09/13 20:14:03;;;;;;;5.22;3.15;;;15.60;99.90;;;;;;12425070;28;20061;-42
2021/09/13 20:20:08;;;;;;;6.18;3.47;;;15.60;99.90;;;;;;12426092;28;20475;-43
2021/09/13 20:26:11;;;;;;;6.80;3.42;;;15.60;99.90;;;;;;12433786;28;20061;-42
2021/09/13 20:32:14;;;;;;;8.90;4.00;;;15.70;99.90;;;;;;12433157;28;20107;-42
2021/09/13 20:38:17;;;;;;;8.27;3.53;;;15.70;99.90;;;;;;12433130;28;20763;-37
2021/09/13 20:44:19;;;;;;;5.75;3.53;;;15.70;99.90;;;;;;12429115;28;20054;-37
2021/09/13 20:50:22;;;;;;;5.03;3.25;;;15.70;99.90;;;;;;12432257;28;20045;-42
2021/09/13 20:56:24;;;;;;;7.07;3.33;;;15.60;99.90;;;;;;12429252;28;20053;-37
2021/09/13 21:02:30;;;;;;;5.88;3.80;;;15.50;99.90;;;;;;12432966;28;20049;-42
2021/09/13 21:08:32;;;;;;;7.43;3.53;;;15.40;99.90;;;;;;12428575;28;20097;-42
2021/09/13 21:14:34;;;;;;;4.97;3.53;;;15.40;99.90;;;;;;12430461;28;20054;-37
2021/09/13 21:20:36;;;;;;;5.07;3.63;;;15.40;99.90;;;;;;12426487;28;20251;-43
2021/09/13 21:26:38;;;;;;;5.40;3.28;;;15.30;99.90;;;;;;12428170;28;20871;-42
2021/09/13 21:32:40;;;;;;;8.90;4.18;;;15.20;99.90;;;;;;12426927;28;20057;-43
2021/09/13 21:38:44;;;;;;;5.97;3.53;;;15.10;99.90;;;;;;12432297;28;20050;-43
2021/09/13 21:44:50;;;;;;;7.95;4.07;;;15.10;99.90;;;;;;12424797;28;20602;-37
2021/09/13 21:50:53;;;;;;;7.88;4.65;;;15.00;99.90;;;;;;12425450;28;20042;-37
2021/09/13 21:56:55;;;;;;;8.00;4.93;;;14.90;99.90;;;;;;12425973;28;20119;-42
2021/09/13 22:02:58;;;;;;;7.13;4.50;;;15.00;99.90;;;;;;12421400;28;20297;-43
2021/09/13 22:09:00;;;;;;;6.40;4.10;;;14.90;99.90;;;;;;12428724;28;20053;-37
2021/09/13 22:15:02;;;;;;;10.25;4.20;;;14.80;99.90;;;;;;12421096;28;20499;-37
2021/09/13 22:21:05;;;;;;;7.35;4.40;;;14.70;99.90;;;;;;12425570;28;20077;-38
2021/09/13 22:27:07;;;;;;;6.63;3.90;;;14.80;99.90;;;;;;12428771;28;20154;-41
2021/09/13 22:33:09;;;;;;;13.63;4.78;;;14.80;99.90;;;;;;12425627;28;20049;-37
2021/09/13 22:39:12;;;;;;;5.38;4.03;;;14.80;99.90;;;;;;12422800;28;20104;-44
2021/09/13 22:45:16;;;;;;;8.60;4.38;;;14.70;99.90;;;;;;12423406;28;20088;-43
2021/09/13 22:51:18;;;;;;;6.97;5.00;;;14.80;99.90;;;;;;12424162;28;20046;-42
2021/09/13 22:57:21;;;;;;;11.43;4.75;;;14.80;99.90;;;;;;12424930;28;20546;-41
2021/09/13 23:03:29;;;;;;;8.87;4.60;;;14.80;99.90;;;;;;12410448;28;20054;-42
2021/09/13 23:09:32;;;;;;;10.10;4.85;;;14.50;99.90;;;;;;12425951;28;20049;-42
2021/09/13 23:15:36;;;;;;;;;;;14.50;99.90;;;;;;12422658;28;20054;-42
2021/09/13 23:21:42;;;;;;;6.97;4.70;;;14.50;99.90;;;;;;12423055;28;19950;-42
2021/09/13 23:27:45;;;;;;;9.80;4.70;;;14.70;99.90;;;;;;12423176;28;20085;-37
2021/09/13 23:33:47;;;;;;;7.25;4.60;;;14.90;99.90;;;;;;12421191;28;20203;-42
2021/09/13 23:39:49;;;;;;;7.25;5.03;;;14.80;99.90;;;;;;12424924;28;20107;-36
2021/09/13 23:45:52;;;;;;;9.20;4.78;;;14.70;99.90;;;;;;12433262;28;20405;-36
2021/09/13 23:51:54;;;;;;;7.20;4.35;;;14.60;99.90;;;;;;12429036;28;20041;-47
2021/09/13 23:57:56;;;;;;;7.20;4.75;;;14.60;99.90;;;;;;12433473;28;20089;-42
